createdAt,value
2023-10-30T00:00:23.148Z,2.77
2023-10-30T00:02:50.136Z,1.70
2023-10-30T00:05:17.421Z,1.50
2023-10-30T00:07:44.617Z,1.57
2023-10-30T00:10:12.633Z,1.80
2023-10-30T00:12:39.563Z,1.83
2023-10-30T00:15:07.144Z,1.70
2023-10-30T00:17:34.049Z,1.53
2023-10-30T00:20:00.879Z,2.03
2023-10-30T00:22:27.777Z,1.93
2023-10-30T00:24:55.046Z,1.60
2023-10-30T00:27:22.139Z,1.40
2023-10-30T00:29:49.427Z,1.20
2023-10-30T00:32:16.767Z,1.20
2023-10-30T00:34:43.573Z,1.93
2023-10-30T00:37:11.396Z,1.50
2023-10-30T00:39:38.548Z,1.37
2023-10-30T00:42:06.277Z,2.00
2023-10-30T00:44:33.285Z,1.10
2023-10-30T00:47:00.245Z,1.17
2023-10-30T00:49:27.287Z,1.53
2023-10-30T00:51:54.207Z,1.20
2023-10-30T00:54:21.108Z,1.27
2023-10-30T00:56:48.285Z,1.10
2023-10-30T00:59:15.493Z,2.30
2023-10-30T01:01:42.509Z,1.67
2023-10-30T01:04:09.577Z,2.07
2023-10-30T01:06:37.086Z,3.37
2023-10-30T01:09:04.314Z,3.07
2023-10-30T01:11:31.473Z,4.27
2023-10-30T01:13:58.303Z,3.30
2023-10-30T01:16:25.209Z,2.13
2023-10-30T01:18:52.060Z,2.20
2023-10-30T01:21:21.294Z,3.73
2023-10-30T01:23:48.308Z,2.70
2023-10-30T01:26:15.365Z,2.17
2023-10-30T01:28:42.292Z,0.93
2023-10-30T01:31:09.212Z,1.63
2023-10-30T01:33:36.172Z,2.20
2023-10-30T01:36:03.232Z,1.87
2023-10-30T01:38:30.036Z,2.93
2023-10-30T01:40:56.852Z,1.90
2023-10-30T01:43:33.704Z,1.57
2023-10-30T01:46:01.329Z,1.90
2023-10-30T01:48:31.553Z,2.50
2023-10-30T01:51:00.553Z,2.03
2023-10-30T01:53:33.032Z,2.43
2023-10-30T01:56:01.625Z,1.83
2023-10-30T01:58:28.553Z,3.50
2023-10-30T02:00:56.175Z,3.13
2023-10-30T02:03:23.093Z,6.83
2023-10-30T02:05:51.727Z,2.40
2023-10-30T02:08:18.812Z,4.20
2023-10-30T02:10:47.351Z,6.80
2023-10-30T02:13:14.541Z,2.80
2023-10-30T02:15:41.444Z,3.03
2023-10-30T02:18:08.426Z,4.57
2023-10-30T02:20:35.532Z,3.20
2023-10-30T02:23:02.452Z,3.47
2023-10-30T02:25:31.612Z,3.00
2023-10-30T02:27:58.612Z,3.07
2023-10-30T02:30:27.582Z,3.10
2023-10-30T02:32:54.708Z,5.50
2023-10-30T02:35:21.851Z,3.47
2023-10-30T02:37:48.703Z,3.53
2023-10-30T02:40:15.724Z,2.47
2023-10-30T02:42:43.109Z,2.50
2023-10-30T02:45:10.315Z,1.70
2023-10-30T02:47:37.234Z,4.90
2023-10-30T02:50:04.727Z,2.23
2023-10-30T02:52:31.737Z,3.30
2023-10-30T02:54:59.058Z,1.80
2023-10-30T02:57:26.073Z,3.73
2023-10-30T02:59:53.154Z,3.10
2023-10-30T03:02:20.116Z,2.83
2023-10-30T03:04:47.067Z,3.33
2023-10-30T03:07:16.418Z,3.37
2023-10-30T03:09:43.788Z,2.13
2023-10-30T03:12:10.763Z,1.87
2023-10-30T03:14:37.800Z,1.43
2023-10-30T03:17:05.177Z,1.67
2023-10-30T03:19:32.318Z,1.37
2023-10-30T03:21:59.197Z,1.03
2023-10-30T03:24:25.989Z,1.20
2023-10-30T03:26:52.817Z,1.00
2023-10-30T03:29:19.654Z,1.10
2023-10-30T03:31:46.520Z,0.93
2023-10-30T03:34:13.455Z,1.47
2023-10-30T03:36:40.236Z,0.87
2023-10-30T03:39:09.310Z,1.40
2023-10-30T03:41:38.285Z,1.10
2023-10-30T03:44:05.576Z,1.13
2023-10-30T03:46:34.470Z,2.20
2023-10-30T03:49:01.276Z,1.30
2023-10-30T03:51:28.112Z,1.20
2023-10-30T03:53:54.929Z,1.30
2023-10-30T03:56:21.808Z,0.80
2023-10-30T03:58:48.624Z,1.00
2023-10-30T04:01:15.563Z,0.70
2023-10-30T04:03:42.493Z,0.80
2023-10-30T04:06:09.375Z,0.80
2023-10-30T04:08:36.170Z,0.73
2023-10-30T04:11:13.092Z,0.80
2023-10-30T04:13:40.066Z,0.67
2023-10-30T04:16:10.162Z,0.70
2023-10-30T04:18:37.261Z,0.60
2023-10-30T04:21:05.222Z,1.00
2023-10-30T04:23:32.052Z,1.20
2023-10-30T04:25:58.845Z,2.73
2023-10-30T04:28:25.702Z,2.10
2023-10-30T04:30:52.484Z,3.30
2023-10-30T04:33:19.661Z,1.53
2023-10-30T04:35:46.521Z,1.33
2023-10-30T04:38:13.419Z,2.40
2023-10-30T04:40:40.303Z,1.27
2023-10-30T04:43:07.076Z,1.43
2023-10-30T04:45:33.965Z,1.20
2023-10-30T04:48:00.858Z,1.23
2023-10-30T04:50:27.701Z,1.20
2023-10-30T04:52:54.463Z,0.70
2023-10-30T04:55:21.283Z,1.53
2023-10-30T04:57:48.135Z,0.80
2023-10-30T05:00:15.301Z,0.90
2023-10-30T05:02:43.633Z,0.73
2023-10-30T05:05:10.519Z,0.60
2023-10-30T05:07:37.335Z,0.67
2023-10-30T05:10:04.483Z,0.77
2023-10-30T05:12:31.316Z,0.70
2023-10-30T05:14:59.774Z,0.60
2023-10-30T05:17:27.677Z,0.60
2023-10-30T05:19:54.525Z,0.60
2023-10-30T05:22:21.306Z,0.67
2023-10-30T05:24:48.232Z,0.70
2023-10-30T05:27:15.114Z,1.13
2023-10-30T05:29:41.983Z,0.63
2023-10-30T05:32:08.918Z,0.87
2023-10-30T05:34:35.897Z,0.60
2023-10-30T05:37:05.758Z,1.00
2023-10-30T05:39:32.797Z,0.93
2023-10-30T05:42:00.237Z,0.80
2023-10-30T05:44:29.892Z,0.70
2023-10-30T05:46:56.725Z,1.00
2023-10-30T05:49:23.510Z,1.00
2023-10-30T05:51:50.436Z,0.83
2023-10-30T05:54:17.325Z,0.70
2023-10-30T05:56:44.124Z,1.73
2023-10-30T05:59:10.925Z,1.40
2023-10-30T06:01:37.799Z,1.40
2023-10-30T06:04:05.358Z,0.80
2023-10-30T06:06:32.399Z,1.40
2023-10-30T06:08:59.416Z,1.40
2023-10-30T06:11:26.234Z,1.87
2023-10-30T06:13:53.038Z,1.40
2023-10-30T06:16:20.085Z,1.63
2023-10-30T06:18:47.452Z,1.83
2023-10-30T06:21:18.217Z,2.57
2023-10-30T06:23:45.568Z,1.43
2023-10-30T06:26:14.129Z,2.00
2023-10-30T06:28:42.360Z,1.70
2023-10-30T06:31:16.163Z,2.20
2023-10-30T06:33:44.230Z,2.23
2023-10-30T06:36:11.347Z,1.60
2023-10-30T06:38:39.075Z,2.37
2023-10-30T06:41:06.436Z,2.00
2023-10-30T06:43:33.941Z,2.43
2023-10-30T06:46:05.326Z,1.83
2023-10-30T06:48:33.013Z,2.70
2023-10-30T06:51:00.132Z,2.17
2023-10-30T06:53:26.995Z,2.10
2023-10-30T06:55:53.866Z,3.37
2023-10-30T06:58:22.842Z,5.07
2023-10-30T07:00:50.049Z,3.93
2023-10-30T07:03:17.309Z,5.50
2023-10-30T07:05:44.265Z,3.60
2023-10-30T07:08:11.122Z,3.20
2023-10-30T07:10:37.932Z,3.20
2023-10-30T07:13:04.752Z,2.73
2023-10-30T07:15:31.603Z,2.53
2023-10-30T07:17:58.665Z,2.23
2023-10-30T07:20:25.525Z,2.10
2023-10-30T07:22:52.352Z,2.27
2023-10-30T07:25:19.155Z,1.77
2023-10-30T07:27:46.089Z,3.13
2023-10-30T07:30:13.602Z,2.70
2023-10-30T07:32:40.699Z,4.47
2023-10-30T07:35:08.249Z,2.83
2023-10-30T07:37:36.599Z,5.07
2023-10-30T07:40:04.987Z,5.53
2023-10-30T07:42:31.947Z,2.57
2023-10-30T07:44:58.936Z,3.50
2023-10-30T07:47:37.211Z,3.30
2023-10-30T07:50:10.277Z,2.87
2023-10-30T07:52:39.027Z,4.17
2023-10-30T07:55:08.071Z,4.27
2023-10-30T07:57:35.518Z,3.17
2023-10-30T08:00:02.452Z,4.00
2023-10-30T08:02:30.768Z,2.40
2023-10-30T08:05:00.016Z,3.40
2023-10-30T08:07:26.855Z,3.63
2023-10-30T08:09:53.741Z,2.33
2023-10-30T08:12:20.681Z,1.50
2023-10-30T08:14:48.071Z,1.83
2023-10-30T08:17:15.099Z,2.97
2023-10-30T08:19:41.901Z,0.93
2023-10-30T08:22:08.743Z,1.77
2023-10-30T08:24:35.746Z,2.63
2023-10-30T08:27:02.773Z,2.37
2023-10-30T08:29:29.701Z,1.70
2023-10-30T08:31:56.572Z,2.93
2023-10-30T08:34:23.390Z,4.00
2023-10-30T08:36:50.282Z,1.47
2023-10-30T08:39:17.193Z,0.73
2023-10-30T08:41:44.152Z,2.60
2023-10-30T08:44:10.970Z,1.20
2023-10-30T08:46:38.086Z,1.53
2023-10-30T08:49:06.105Z,1.30
2023-10-30T08:51:42.998Z,0.80
2023-10-30T08:54:14.175Z,1.27
2023-10-30T08:56:42.960Z,0.80
2023-10-30T08:59:09.788Z,4.87
2023-10-30T09:01:36.613Z,2.80
2023-10-30T09:04:03.631Z,3.90
2023-10-30T09:06:30.629Z,4.10
2023-10-30T09:08:57.568Z,2.27
2023-10-30T09:11:24.471Z,2.50
2023-10-30T09:13:51.821Z,2.97
2023-10-30T09:16:18.684Z,0.97
2023-10-30T09:18:45.602Z,1.93
2023-10-30T09:21:13.156Z,2.30
2023-10-30T09:23:43.087Z,0.70
2023-10-30T09:26:11.432Z,2.80
2023-10-30T09:28:38.731Z,0.93
2023-10-30T09:31:05.608Z,0.80
2023-10-30T09:33:33.684Z,1.93
2023-10-30T09:36:01.094Z,0.90
2023-10-30T09:38:28.080Z,0.67
2023-10-30T09:41:02.571Z,0.87
2023-10-30T09:43:29.849Z,0.83
2023-10-30T09:46:02.116Z,1.17
2023-10-30T09:48:31.489Z,0.67
2023-10-30T09:50:59.827Z,1.10
2023-10-30T09:53:27.052Z,2.03
2023-10-30T09:55:55.559Z,1.23
2023-10-30T09:58:25.516Z,1.23
2023-10-30T10:00:52.606Z,1.80
2023-10-30T10:03:21.681Z,1.17
2023-10-30T10:05:58.798Z,1.23
2023-10-30T10:08:26.378Z,1.00
2023-10-30T10:11:01.433Z,1.13
2023-10-30T10:13:32.500Z,2.30
2023-10-30T10:16:01.019Z,1.67
2023-10-30T10:18:35.587Z,1.33
2023-10-30T10:21:09.492Z,1.33
2023-10-30T10:23:37.986Z,2.00
2023-10-30T10:26:15.684Z,0.80
2023-10-30T10:28:46.986Z,1.07
2023-10-30T10:31:15.475Z,2.30
2023-10-30T10:33:44.716Z,0.60
2023-10-30T10:36:12.567Z,1.03
2023-10-30T10:38:39.531Z,3.60
2023-10-30T10:41:10.129Z,0.60
2023-10-30T10:43:38.546Z,0.93
2023-10-30T10:46:05.892Z,1.67
2023-10-30T10:48:32.871Z,2.27
2023-10-30T10:51:02.784Z,0.40
2023-10-30T10:53:31.097Z,2.73
2023-10-30T10:56:05.491Z,1.03
2023-10-30T10:58:38.423Z,0.80
2023-10-30T11:01:07.072Z,1.47
2023-10-30T11:03:35.939Z,0.80
2023-10-30T11:06:03.282Z,1.37
2023-10-30T11:08:56.063Z,1.37
2023-10-30T11:11:41.193Z,2.70
2023-10-30T11:14:35.590Z,1.30
2023-10-30T11:17:06.512Z,2.47
2023-10-30T11:19:38.455Z,2.90
2023-10-30T11:22:05.849Z,3.13
2023-10-30T11:24:45.124Z,1.87
2023-10-30T11:27:27.483Z,1.53
2023-10-30T11:29:58.596Z,1.10
2023-10-30T11:32:26.377Z,1.90
2023-10-30T11:34:53.326Z,4.93
2023-10-30T11:37:24.096Z,6.23
2023-10-30T11:39:54.539Z,3.40
2023-10-30T11:42:27.496Z,1.00
2023-10-30T11:45:19.359Z,2.00
2023-10-30T11:47:48.029Z,4.93
2023-10-30T11:50:18.710Z,2.00
2023-10-30T11:52:50.054Z,2.33
2023-10-30T11:55:20.281Z,2.50
2023-10-30T11:57:48.276Z,5.67
2023-10-30T12:00:15.725Z,3.43
2023-10-30T12:02:43.099Z,1.63
2023-10-30T12:05:11.333Z,3.83
2023-10-30T12:07:39.576Z,3.07
2023-10-30T12:10:06.940Z,1.40
2023-10-30T12:12:33.907Z,1.00
2023-10-30T12:15:01.651Z,1.57
2023-10-30T12:17:28.597Z,1.43
2023-10-30T12:19:56.028Z,3.60
2023-10-30T12:22:23.101Z,1.93
2023-10-30T12:24:51.313Z,4.50
2023-10-30T12:27:25.030Z,1.77
2023-10-30T12:29:58.551Z,1.57
2023-10-30T12:32:28.515Z,2.03
2023-10-30T12:34:56.115Z,1.67
2023-10-30T12:37:27.307Z,0.53
2023-10-30T12:40:20.609Z,2.03
2023-10-30T12:42:49.023Z,2.20
2023-10-30T12:45:16.687Z,1.77
2023-10-30T12:47:45.755Z,0.97
2023-10-30T12:50:13.655Z,0.70
2023-10-30T12:52:41.813Z,1.17
2023-10-30T12:55:08.935Z,0.70
2023-10-30T12:57:38.303Z,1.97
2023-10-30T13:00:09.993Z,2.37
2023-10-30T13:02:37.421Z,2.17
2023-10-30T13:05:04.627Z,1.50
2023-10-30T13:07:31.774Z,1.97
2023-10-30T13:09:58.637Z,4.23
2023-10-30T13:12:25.595Z,1.70
2023-10-30T13:14:52.830Z,1.00
2023-10-30T13:17:19.657Z,1.97
2023-10-30T13:19:46.660Z,2.10
2023-10-30T13:22:13.492Z,1.30
2023-10-30T13:24:40.363Z,1.50
2023-10-30T13:27:07.216Z,0.93
2023-10-30T13:29:34.071Z,1.53
2023-10-30T13:32:00.815Z,1.20
2023-10-30T13:34:27.664Z,1.20
2023-10-30T13:36:54.496Z,1.20
2023-10-30T13:39:21.276Z,1.37
2023-10-30T13:41:48.197Z,2.30
2023-10-30T13:44:15.672Z,2.53
2023-10-30T13:46:42.541Z,1.30
2023-10-30T13:49:09.453Z,1.27
2023-10-30T13:51:36.564Z,4.43
2023-10-30T13:54:03.533Z,1.40
2023-10-30T13:56:30.386Z,2.03
2023-10-30T13:58:57.226Z,4.27
2023-10-30T14:01:24.050Z,4.70
2023-10-30T14:03:51.301Z,3.40
2023-10-30T14:06:19.065Z,2.03
2023-10-30T14:08:45.892Z,1.43
2023-10-30T14:11:12.859Z,5.37
2023-10-30T14:13:39.714Z,1.67
2023-10-30T14:16:07.107Z,3.03
2023-10-30T14:18:35.149Z,2.20
2023-10-30T14:21:02.119Z,2.50
2023-10-30T14:23:29.114Z,2.43
2023-10-30T14:25:56.340Z,4.87
2023-10-30T14:28:23.303Z,4.03
2023-10-30T14:30:50.106Z,4.47
2023-10-30T14:33:19.172Z,2.57
2023-10-30T14:35:47.177Z,4.00
2023-10-30T14:38:13.989Z,2.60
2023-10-30T14:40:40.801Z,1.60
2023-10-30T14:43:07.725Z,2.90
2023-10-30T14:45:34.641Z,3.80
2023-10-30T14:48:01.503Z,1.73
2023-10-30T14:50:29.059Z,1.30
2023-10-30T14:52:55.906Z,1.37
2023-10-30T14:55:22.708Z,1.53
2023-10-30T14:57:49.554Z,3.07
2023-10-30T15:00:16.726Z,2.23
2023-10-30T15:02:45.003Z,3.17
2023-10-30T15:05:13.945Z,3.13
2023-10-30T15:07:40.992Z,4.53
2023-10-30T15:10:08.598Z,2.77
2023-10-30T15:12:35.528Z,2.93
2023-10-30T15:15:03.708Z,2.70
2023-10-30T15:17:35.159Z,2.23
2023-10-30T15:20:04.353Z,2.37
2023-10-30T15:22:31.159Z,2.50
2023-10-30T15:24:57.972Z,2.83
2023-10-30T15:27:27.050Z,3.13
2023-10-30T15:29:53.957Z,4.00
2023-10-30T15:32:20.775Z,3.17
2023-10-30T15:34:48.115Z,1.90
2023-10-30T15:37:16.142Z,2.73
2023-10-30T15:39:44.701Z,4.20
2023-10-30T15:42:11.790Z,2.60
2023-10-30T15:44:40.351Z,1.43
2023-10-30T15:47:18.412Z,3.03
2023-10-30T15:49:51.913Z,1.97
2023-10-30T15:59:54.255Z,2.17
2023-10-30T16:02:21.067Z,1.60
2023-10-30T16:07:19.672Z,3.33
2023-10-30T16:09:46.570Z,3.80
2023-10-30T16:12:14.176Z,2.93
2023-10-30T16:14:41.454Z,3.17
2023-10-30T16:19:39.875Z,3.83
2023-10-30T16:22:07.196Z,3.93
2023-10-30T16:24:34.522Z,3.30
2023-10-30T16:27:01.326Z,2.73
2023-10-30T16:29:28.130Z,3.70
2023-10-30T16:31:55.004Z,2.40
2023-10-30T16:34:21.893Z,2.00
2023-10-30T16:36:48.745Z,4.73
2023-10-30T16:39:15.616Z,19.70
2023-10-30T16:41:43.807Z,17.10
2023-10-30T16:44:10.633Z,16.27
2023-10-30T16:46:40.275Z,14.93
2023-10-30T16:49:07.190Z,16.37
2023-10-30T16:51:33.961Z,12.07
2023-10-30T16:54:00.755Z,11.00
2023-10-30T16:56:27.720Z,9.40
2023-10-30T16:58:54.511Z,7.63
2023-10-30T17:01:21.382Z,4.37
2023-10-30T17:03:48.181Z,5.90
2023-10-30T17:06:15.398Z,4.03
2023-10-30T17:08:42.260Z,3.13
2023-10-30T17:11:09.058Z,2.37
2023-10-30T17:13:35.896Z,4.40
2023-10-30T17:16:02.667Z,2.67
2023-10-30T17:18:29.737Z,5.37
2023-10-30T17:20:56.831Z,3.30
2023-10-30T17:23:23.644Z,2.83
2023-10-30T17:25:50.511Z,5.07
2023-10-30T17:28:17.583Z,5.90
2023-10-30T17:30:44.577Z,7.63
2023-10-30T17:33:11.412Z,5.30
2023-10-30T17:35:38.286Z,4.00
2023-10-30T17:38:05.132Z,3.70
2023-10-30T17:40:32.046Z,3.73
2023-10-30T17:42:58.877Z,3.03
2023-10-30T17:45:26.016Z,5.07
2023-10-30T17:47:53.062Z,6.20
2023-10-30T17:50:20.061Z,13.17
2023-10-30T17:52:48.314Z,11.13
2023-10-30T17:55:18.031Z,7.93
2023-10-30T17:57:45.419Z,10.27
2023-10-30T18:00:12.965Z,7.67
2023-10-30T18:02:40.330Z,10.03
2023-10-30T18:05:07.668Z,12.93
2023-10-30T18:07:34.778Z,20.50
2023-10-30T18:10:01.720Z,18.90
2023-10-30T18:12:28.652Z,24.80
2023-10-30T18:14:55.541Z,27.93
2023-10-30T18:17:22.360Z,21.57
2023-10-30T18:19:49.467Z,12.00
2023-10-30T18:22:16.434Z,7.33
2023-10-30T18:24:43.414Z,6.03
2023-10-30T18:27:10.229Z,11.43
2023-10-30T18:29:37.091Z,7.53
2023-10-30T18:32:04.329Z,11.60
2023-10-30T18:34:31.176Z,10.17
2023-10-30T18:36:58.035Z,8.33
2023-10-30T18:39:24.896Z,9.63
2023-10-30T18:41:51.753Z,11.70
2023-10-30T18:44:19.355Z,9.37
2023-10-30T18:46:46.401Z,5.77
2023-10-30T18:49:13.282Z,6.47
2023-10-30T18:51:40.219Z,4.67
2023-10-30T18:54:07.351Z,3.80
2023-10-30T18:56:35.109Z,3.83
2023-10-30T18:59:02.362Z,3.40
2023-10-30T19:01:29.347Z,8.27
2023-10-30T19:03:56.461Z,3.67
2023-10-30T19:06:23.474Z,4.90
2023-10-30T19:08:55.452Z,7.13
2023-10-30T19:11:22.418Z,4.13
2023-10-30T19:13:49.288Z,4.90
2023-10-30T19:16:16.492Z,6.30
2023-10-30T19:18:43.409Z,6.60
2023-10-30T19:21:10.234Z,5.13
2023-10-30T19:23:37.021Z,6.83
2023-10-30T19:26:04.227Z,6.03
2023-10-30T19:28:31.054Z,7.17
2023-10-30T19:30:58.609Z,4.10
2023-10-30T19:33:27.694Z,5.10
2023-10-30T19:35:54.526Z,6.53
2023-10-30T19:38:21.449Z,4.37
2023-10-30T19:40:48.392Z,5.63
2023-10-30T19:43:15.223Z,3.37
2023-10-30T19:45:42.093Z,4.57
2023-10-30T19:48:09.480Z,4.03
2023-10-30T19:50:37.459Z,5.83
2023-10-30T19:53:04.320Z,4.00
2023-10-30T19:55:32.349Z,4.30
2023-10-30T19:57:59.463Z,3.27
2023-10-30T20:00:26.317Z,4.97
2023-10-30T20:02:53.133Z,3.83
2023-10-30T20:05:20.066Z,3.90
2023-10-30T20:07:46.970Z,3.20
2023-10-30T20:10:28.285Z,5.47
2023-10-30T20:13:02.836Z,3.50
2023-10-30T20:15:29.682Z,4.23
2023-10-30T20:17:56.599Z,4.03
2023-10-30T20:20:23.526Z,3.97
2023-10-30T20:22:51.834Z,5.27
2023-10-30T20:25:24.228Z,3.17
2023-10-30T20:27:51.095Z,6.33
2023-10-30T20:30:17.919Z,2.80
2023-10-30T20:32:44.965Z,3.60
2023-10-30T20:35:13.259Z,24.60
2023-10-30T20:37:41.170Z,3.67
2023-10-30T20:40:08.666Z,3.83
2023-10-30T20:42:35.513Z,2.20
2023-10-30T20:45:03.094Z,1.70
2023-10-30T20:47:29.965Z,2.70
2023-10-30T20:49:56.873Z,3.30
2023-10-30T20:52:25.808Z,1.60
2023-10-30T20:54:53.084Z,2.53
2023-10-30T20:57:19.974Z,1.90
2023-10-30T20:59:46.802Z,2.53
2023-10-30T21:02:13.657Z,1.77
2023-10-30T21:04:40.606Z,1.90
2023-10-30T21:07:07.462Z,2.30
2023-10-30T21:09:34.244Z,1.27
2023-10-30T21:12:01.019Z,2.97
2023-10-30T21:14:27.899Z,4.80
2023-10-30T21:16:56.406Z,3.73
2023-10-30T21:19:23.866Z,2.03
2023-10-30T21:21:50.738Z,1.73
2023-10-30T21:24:17.542Z,3.80
2023-10-30T21:26:44.457Z,1.30
2023-10-30T21:29:13.533Z,1.90
2023-10-30T21:31:42.049Z,2.43
2023-10-30T21:34:08.796Z,1.90
2023-10-30T21:36:35.586Z,3.53
2023-10-30T21:39:02.436Z,2.13
2023-10-30T21:41:29.237Z,1.53
2023-10-30T21:43:56.090Z,2.40
2023-10-30T21:46:22.993Z,0.70
2023-10-30T21:48:49.761Z,1.77
2023-10-30T21:51:18.817Z,1.87
2023-10-30T21:53:45.566Z,1.20
2023-10-30T21:56:21.904Z,1.60
2023-10-30T21:58:48.867Z,5.33
2023-10-30T22:01:16.470Z,2.07
2023-10-30T22:03:43.705Z,3.70
2023-10-30T22:06:10.567Z,1.23
2023-10-30T22:08:37.330Z,1.37
2023-10-30T22:11:04.586Z,2.27
2023-10-30T22:13:31.442Z,1.10
2023-10-30T22:15:58.418Z,1.43
2023-10-30T22:18:25.277Z,2.67
2023-10-30T22:20:52.889Z,1.20
2023-10-30T22:23:19.975Z,1.60
2023-10-30T22:25:47.833Z,1.63
2023-10-30T22:28:14.697Z,2.17
2023-10-30T22:30:41.898Z,2.77
2023-10-30T22:33:09.634Z,1.20
2023-10-30T22:35:36.410Z,1.73
2023-10-30T22:38:03.411Z,1.10
2023-10-30T22:40:30.407Z,1.53
2023-10-30T22:42:57.351Z,1.60
2023-10-30T22:45:24.486Z,1.47
2023-10-30T22:47:52.912Z,1.40
2023-10-30T22:50:19.826Z,1.50
2023-10-30T22:52:46.752Z,1.30
2023-10-30T22:55:13.627Z,1.53
2023-10-30T22:57:40.519Z,1.40
2023-10-30T23:00:14.769Z,1.33
2023-10-30T23:02:41.893Z,3.53
2023-10-30T23:05:08.986Z,3.57
2023-10-30T23:07:37.630Z,2.87
2023-10-30T23:10:05.251Z,1.53
2023-10-30T23:12:32.167Z,4.37
2023-10-30T23:15:02.517Z,1.57
2023-10-30T23:17:29.584Z,1.70
2023-10-30T23:19:56.599Z,1.60
2023-10-30T23:22:23.586Z,2.77
2023-10-30T23:24:50.473Z,1.43
2023-10-30T23:27:17.274Z,5.10
2023-10-30T23:29:44.522Z,1.83
2023-10-30T23:32:11.348Z,2.10
2023-10-30T23:34:38.118Z,1.93
2023-10-30T23:37:05.441Z,1.20
2023-10-30T23:39:32.324Z,3.57
2023-10-30T23:41:59.127Z,2.57
2023-10-30T23:44:25.950Z,5.30
2023-10-30T23:46:52.773Z,1.67
2023-10-30T23:49:19.586Z,1.40
2023-10-30T23:51:46.343Z,1.23
2023-10-30T23:54:13.489Z,0.70
2023-10-30T23:56:40.330Z,0.77
2023-10-30T23:59:07.118Z,1.10
